createdAt,value
2022-12-17T00:03:00.183Z,22.52
2022-12-17T00:05:46.052Z,23.30
2022-12-17T00:08:33.244Z,22.65
2022-12-17T00:11:19.337Z,23.65
2022-12-17T00:14:05.133Z,21.98
2022-12-17T00:16:51.074Z,21.60
2022-12-17T00:19:38.112Z,22.35
2022-12-17T00:22:24.066Z,21.67
2022-12-17T00:25:10.398Z,21.00
2022-12-17T00:27:56.491Z,20.85
2022-12-17T00:30:42.745Z,20.67
2022-12-17T00:33:31.482Z,21.08
2022-12-17T00:36:17.663Z,20.42
2022-12-17T00:39:04.665Z,20.25
2022-12-17T00:41:50.686Z,21.35
2022-12-17T00:44:50.347Z,21.33
2022-12-17T00:47:36.261Z,24.20
2022-12-17T00:50:22.234Z,24.27
2022-12-17T00:53:12.624Z,24.13
2022-12-17T00:55:58.732Z,23.65
2022-12-17T00:58:44.305Z,24.25
2022-12-17T01:01:31.283Z,23.70
2022-12-17T01:04:18.170Z,24.33
2022-12-17T01:07:03.971Z,23.27
2022-12-17T01:09:53.021Z,23.48
2022-12-17T01:12:38.973Z,23.38
2022-12-17T01:15:25.353Z,23.63
2022-12-17T01:18:11.661Z,22.98
2022-12-17T01:20:57.403Z,23.23
2022-12-17T01:23:43.608Z,21.88
2022-12-17T01:26:30.062Z,22.50
2022-12-17T01:29:17.007Z,22.88
2022-12-17T01:32:02.945Z,22.50
2022-12-17T01:34:48.716Z,21.70
2022-12-17T01:37:34.604Z,22.45
2022-12-17T01:40:20.584Z,22.35
2022-12-17T01:43:06.604Z,22.38
2022-12-17T01:46:01.984Z,23.58
2022-12-17T01:49:06.479Z,22.17
2022-12-17T01:51:53.887Z,22.48
2022-12-17T01:54:39.627Z,20.92
2022-12-17T01:57:26.797Z,19.73
2022-12-17T02:00:23.943Z,20.67
2022-12-17T02:03:10.186Z,20.55
2022-12-17T02:06:16.366Z,19.73
2022-12-17T02:09:21.025Z,20.02
2022-12-17T02:12:28.799Z,19.27
2022-12-17T02:15:40.299Z,18.63
2022-12-17T02:18:33.406Z,18.75
2022-12-17T02:21:25.475Z,19.42
2022-12-17T02:24:32.840Z,19.05
2022-12-17T02:27:23.367Z,18.52
2022-12-17T02:30:14.423Z,18.90
2022-12-17T02:33:03.180Z,18.75
2022-12-17T02:36:04.095Z,18.33
2022-12-17T02:38:51.807Z,16.80
2022-12-17T02:41:47.551Z,17.75
2022-12-17T02:44:38.179Z,18.33
2022-12-17T02:47:28.635Z,17.70
2022-12-17T02:50:15.108Z,17.58
2022-12-17T02:53:05.447Z,17.73
2022-12-17T02:55:53.086Z,18.58
2022-12-17T02:58:39.308Z,18.58
2022-12-17T03:01:26.767Z,19.42
2022-12-17T03:04:13.817Z,19.35
2022-12-17T03:06:59.795Z,20.52
2022-12-17T03:09:45.468Z,21.17
2022-12-17T03:12:32.255Z,20.77
2022-12-17T03:15:18.010Z,20.42
2022-12-17T03:18:03.843Z,21.48
2022-12-17T03:20:49.680Z,21.42
2022-12-17T03:23:36.171Z,22.13
2022-12-17T03:26:22.842Z,21.02
2022-12-17T03:29:08.955Z,21.38
2022-12-17T03:31:54.861Z,21.70
2022-12-17T03:34:40.846Z,23.27
2022-12-17T03:37:27.034Z,21.05
2022-12-17T03:40:12.868Z,20.38
2022-12-17T03:42:58.628Z,25.48
2022-12-17T03:45:44.700Z,20.05
2022-12-17T03:48:33.190Z,19.17
2022-12-17T03:51:19.553Z,17.65
2022-12-17T03:54:06.441Z,17.45
2022-12-17T03:56:53.391Z,15.80
2022-12-17T03:59:39.433Z,15.60
2022-12-17T04:02:25.644Z,15.73
2022-12-17T04:05:15.210Z,16.15
2022-12-17T04:08:08.390Z,15.40
2022-12-17T04:10:57.326Z,16.20
2022-12-17T04:13:43.649Z,17.23
2022-12-17T04:16:30.000Z,17.92
2022-12-17T04:19:17.920Z,17.25
2022-12-17T04:22:03.781Z,17.98
2022-12-17T04:24:49.791Z,18.73
2022-12-17T04:27:35.761Z,18.10
2022-12-17T04:30:22.545Z,18.27
2022-12-17T04:33:08.647Z,18.88
2022-12-17T04:35:57.630Z,18.85
2022-12-17T04:38:43.509Z,19.25
2022-12-17T04:41:29.466Z,19.15
2022-12-17T04:44:16.819Z,20.23
2022-12-17T04:47:02.838Z,20.70
2022-12-17T04:49:48.877Z,21.58
2022-12-17T04:52:34.827Z,21.98
2022-12-17T04:55:21.127Z,22.98
2022-12-17T04:58:07.193Z,23.92
2022-12-17T05:00:53.410Z,22.88
2022-12-17T05:03:39.857Z,23.90
2022-12-17T05:06:27.305Z,23.42
2022-12-17T05:09:13.256Z,24.63
2022-12-17T05:11:59.233Z,22.08
2022-12-17T05:14:45.224Z,24.15
2022-12-17T05:17:31.170Z,24.52
2022-12-17T05:20:17.040Z,22.92
2022-12-17T05:23:02.953Z,23.23
2022-12-17T05:25:48.978Z,22.60
2022-12-17T05:28:35.018Z,22.27
2022-12-17T05:31:21.069Z,23.55
2022-12-17T05:34:06.763Z,23.15
2022-12-17T05:36:52.691Z,22.92
2022-12-17T05:39:44.663Z,22.35
2022-12-17T05:42:30.799Z,22.85
2022-12-17T05:45:16.890Z,23.58
2022-12-17T05:48:02.727Z,22.83
2022-12-17T05:50:48.944Z,23.35
2022-12-17T05:53:35.440Z,24.10
2022-12-17T05:56:23.975Z,23.13
2022-12-17T05:59:09.869Z,22.55
2022-12-17T06:01:55.976Z,22.85
2022-12-17T06:04:41.975Z,22.83
2022-12-17T06:07:41.490Z,23.60
2022-12-17T06:10:27.689Z,21.77
2022-12-17T06:13:16.559Z,22.65
2022-12-17T06:16:04.603Z,20.83
2022-12-17T06:18:50.569Z,19.67
2022-12-17T06:21:36.493Z,18.20
2022-12-17T06:24:22.457Z,17.83
2022-12-17T06:27:08.394Z,16.92
2022-12-17T06:29:54.359Z,17.35
2022-12-17T06:32:40.365Z,17.85
2022-12-17T06:35:27.387Z,18.83
2022-12-17T06:38:23.107Z,18.73
2022-12-17T06:41:10.502Z,19.85
2022-12-17T06:43:56.487Z,19.33
2022-12-17T06:46:45.451Z,19.02
2022-12-17T06:49:31.115Z,19.90
2022-12-17T06:52:17.126Z,19.70
2022-12-17T06:55:02.970Z,22.02
2022-12-17T06:57:50.589Z,22.90
2022-12-17T07:00:36.850Z,21.80
2022-12-17T07:03:23.146Z,21.85
2022-12-17T07:06:09.400Z,22.20
2022-12-17T07:08:55.365Z,21.77
2022-12-17T07:11:42.958Z,22.45
2022-12-17T07:14:29.209Z,21.90
2022-12-17T07:17:15.221Z,21.90
2022-12-17T07:20:01.043Z,21.30
2022-12-17T07:22:47.032Z,21.15
2022-12-17T07:25:33.060Z,21.08
2022-12-17T07:28:18.731Z,21.13
2022-12-17T07:31:04.731Z,20.13
2022-12-17T07:33:50.633Z,21.48
2022-12-17T07:36:36.637Z,21.85
2022-12-17T07:39:22.590Z,20.38
2022-12-17T07:42:08.486Z,21.42
2022-12-17T07:44:54.579Z,22.80
2022-12-17T07:47:40.572Z,22.42
2022-12-17T07:50:27.018Z,21.80
2022-12-17T07:53:20.833Z,21.15
2022-12-17T07:56:06.859Z,21.77
2022-12-17T07:58:52.840Z,23.50
2022-12-17T08:01:38.888Z,21.90
2022-12-17T08:04:25.200Z,22.27
2022-12-17T08:07:14.028Z,22.75
2022-12-17T08:10:00.198Z,23.40
2022-12-17T08:12:46.052Z,24.85
2022-12-17T08:15:32.053Z,23.52
2022-12-17T08:18:26.188Z,22.35
2022-12-17T08:21:12.932Z,23.08
2022-12-17T08:23:58.918Z,24.08
2022-12-17T08:26:48.125Z,24.95
2022-12-17T08:29:34.220Z,24.23
2022-12-17T08:32:20.182Z,22.88
2022-12-17T08:35:06.099Z,24.33
2022-12-17T08:37:52.030Z,24.40
2022-12-17T08:40:37.978Z,24.55
2022-12-17T08:43:24.008Z,24.92
2022-12-17T08:46:10.939Z,23.27
2022-12-17T08:48:57.019Z,24.02
2022-12-17T08:51:43.644Z,23.30
2022-12-17T08:54:29.563Z,24.23
2022-12-17T08:57:30.588Z,23.80
2022-12-17T09:00:17.792Z,23.75
2022-12-17T09:03:04.470Z,22.50
2022-12-17T09:05:50.904Z,22.23
2022-12-17T09:08:36.786Z,23.27
2022-12-17T09:11:22.822Z,23.55
2022-12-17T09:14:08.665Z,23.70
2022-12-17T09:16:54.668Z,22.92
2022-12-17T09:19:40.674Z,23.00
2022-12-17T09:22:26.688Z,24.05
2022-12-17T09:25:12.602Z,23.27
2022-12-17T09:27:58.539Z,23.50
2022-12-17T09:30:44.418Z,24.58
2022-12-17T09:33:39.428Z,24.52
2022-12-17T09:36:26.111Z,25.60
2022-12-17T09:39:12.172Z,26.70
2022-12-17T09:42:01.251Z,26.20
2022-12-17T09:45:09.332Z,27.13
2022-12-17T09:47:59.775Z,26.05
2022-12-17T09:50:46.293Z,23.75
2022-12-17T09:54:03.024Z,22.80
2022-12-17T09:56:51.553Z,20.27
2022-12-17T09:59:44.440Z,21.63
2022-12-17T10:02:37.865Z,20.60
2022-12-17T10:05:30.377Z,19.45
2022-12-17T10:08:19.811Z,19.60
2022-12-17T10:11:05.839Z,20.88
2022-12-17T10:13:51.489Z,19.42
2022-12-17T10:16:58.740Z,18.98
2022-12-17T10:19:51.248Z,19.95
2022-12-17T10:22:39.525Z,19.73
2022-12-17T10:25:34.492Z,20.08
2022-12-17T10:28:24.215Z,19.60
2022-12-17T10:31:16.172Z,19.83
2022-12-17T10:34:03.534Z,19.85
2022-12-17T10:36:53.149Z,19.55
2022-12-17T10:39:42.986Z,20.08
2022-12-17T10:42:44.518Z,19.58
2022-12-17T10:45:54.010Z,20.05
2022-12-17T10:48:48.477Z,20.92
2022-12-17T10:51:46.749Z,20.40
2022-12-17T10:54:49.317Z,21.55
2022-12-17T10:57:54.107Z,21.08
2022-12-17T11:00:50.504Z,21.35
2022-12-17T11:03:56.632Z,22.75
2022-12-17T11:06:47.625Z,21.85
2022-12-17T11:09:42.404Z,20.52
2022-12-17T11:12:31.181Z,22.05
2022-12-17T11:15:23.010Z,19.40
2022-12-17T11:18:11.568Z,21.33
2022-12-17T11:21:20.846Z,21.00
2022-12-17T11:24:09.782Z,20.67
2022-12-17T11:26:58.109Z,20.33
2022-12-17T11:29:44.487Z,19.02
2022-12-17T11:33:02.571Z,13.02
2022-12-17T11:35:59.063Z,11.80
2022-12-17T11:38:53.414Z,11.93
2022-12-17T11:42:13.994Z,7.60
2022-12-17T11:45:09.050Z,5.40
2022-12-17T11:48:20.158Z,3.80
2022-12-17T11:51:30.052Z,2.58
2022-12-17T11:54:33.976Z,5.28
2022-12-17T11:57:22.794Z,2.13
2022-12-17T12:00:22.842Z,3.17
2022-12-17T12:03:22.961Z,2.50
2022-12-17T12:06:16.376Z,1.80
2022-12-17T12:09:20.865Z,2.40
2022-12-17T12:12:26.443Z,2.30
2022-12-17T12:15:12.378Z,8.23
2022-12-17T12:18:21.623Z,14.73
2022-12-17T12:21:32.021Z,14.57
2022-12-17T12:24:39.454Z,13.25
2022-12-17T12:27:28.541Z,11.93
2022-12-17T12:30:39.473Z,11.18
2022-12-17T12:33:46.193Z,10.77
2022-12-17T12:36:35.919Z,7.35
2022-12-17T12:39:22.035Z,4.30
2022-12-17T12:42:20.082Z,2.40
2022-12-17T12:45:48.166Z,2.40
2022-12-17T12:48:53.078Z,2.17
2022-12-17T12:51:52.772Z,2.28
2022-12-17T12:55:04.818Z,2.20
2022-12-17T12:57:58.380Z,2.15
2022-12-17T13:00:57.662Z,2.20
2022-12-17T13:03:43.405Z,2.03
2022-12-17T13:06:12.901Z,2.80
2022-12-17T13:08:41.097Z,2.88
2022-12-17T13:11:30.840Z,2.58
2022-12-17T13:14:06.325Z,2.30
2022-12-17T13:16:55.309Z,2.42
2022-12-17T13:19:36.669Z,3.13
2022-12-17T13:22:13.064Z,2.92
2022-12-17T13:24:44.352Z,2.75
2022-12-17T13:27:31.935Z,3.13
2022-12-17T13:30:22.546Z,2.88
2022-12-17T13:33:24.107Z,3.17
2022-12-17T13:36:06.325Z,2.93
2022-12-17T13:39:00.851Z,3.10
2022-12-17T13:41:31.680Z,3.50
2022-12-17T13:44:16.172Z,3.60
2022-12-17T13:46:47.531Z,3.88
2022-12-17T13:49:29.189Z,4.45
2022-12-17T13:52:17.299Z,4.63
2022-12-17T13:54:44.941Z,4.85
2022-12-17T13:57:24.811Z,4.63
2022-12-17T13:59:54.360Z,3.67
2022-12-17T14:02:27.749Z,3.72
2022-12-17T14:04:58.526Z,3.53
2022-12-17T14:07:29.640Z,3.10
2022-12-17T14:09:57.375Z,3.33
2022-12-17T14:12:27.260Z,3.20
2022-12-17T14:14:56.027Z,3.67
2022-12-17T14:17:29.488Z,3.63
2022-12-17T14:20:04.979Z,3.40
2022-12-17T14:22:38.990Z,3.40
2022-12-17T14:25:23.709Z,3.58
2022-12-17T14:27:57.009Z,2.90
2022-12-17T14:31:02.717Z,3.00
2022-12-17T14:33:36.932Z,3.40
2022-12-17T14:36:24.613Z,3.45
2022-12-17T14:39:00.804Z,3.10
2022-12-17T14:41:47.537Z,2.90
2022-12-17T14:44:27.536Z,2.97
2022-12-17T14:47:14.291Z,3.28
2022-12-17T14:49:55.952Z,3.15
2022-12-17T14:52:50.518Z,3.70
2022-12-17T14:55:38.200Z,3.50
2022-12-17T14:58:11.547Z,3.80
2022-12-17T15:00:41.204Z,4.40
2022-12-17T15:03:18.564Z,4.60
2022-12-17T15:05:51.807Z,3.80
2022-12-17T15:08:21.446Z,4.15
2022-12-17T15:10:48.956Z,4.38
2022-12-17T15:13:16.471Z,3.92
2022-12-17T15:15:43.793Z,3.80
2022-12-17T15:18:11.122Z,4.30
2022-12-17T15:20:38.504Z,4.15
2022-12-17T15:23:06.002Z,4.63
2022-12-17T15:25:33.332Z,4.22
2022-12-17T15:28:00.674Z,4.43
2022-12-17T15:30:28.181Z,4.15
2022-12-17T15:32:55.475Z,4.00
2022-12-17T15:35:24.810Z,4.05
2022-12-17T15:37:52.237Z,4.47
2022-12-17T15:40:20.233Z,5.53
2022-12-17T15:43:08.336Z,4.47
2022-12-17T15:45:42.669Z,4.28
2022-12-17T15:48:12.120Z,4.97
2022-12-17T15:50:40.385Z,4.38
2022-12-17T15:53:15.602Z,4.90
2022-12-17T15:55:42.953Z,5.60
2022-12-17T15:58:11.532Z,6.43
2022-12-17T16:00:39.011Z,7.68
2022-12-17T16:03:06.579Z,7.22
2022-12-17T16:05:36.479Z,7.22
2022-12-17T16:08:03.967Z,7.18
2022-12-17T16:10:31.400Z,8.65
2022-12-17T16:12:58.764Z,9.68
2022-12-17T16:15:26.207Z,10.23
2022-12-17T16:17:56.273Z,10.02
2022-12-17T16:20:24.141Z,11.18
2022-12-17T16:22:51.485Z,10.25
2022-12-17T16:25:19.429Z,11.43
2022-12-17T16:27:46.837Z,10.57
2022-12-17T16:30:14.380Z,11.02
2022-12-17T16:32:44.699Z,11.98
2022-12-17T16:35:12.363Z,12.48
2022-12-17T16:37:42.772Z,13.57
2022-12-17T16:40:10.994Z,13.48
2022-12-17T16:42:38.328Z,12.88
2022-12-17T16:45:11.069Z,12.88
2022-12-17T16:47:38.485Z,13.88
2022-12-17T16:50:08.738Z,12.55
2022-12-17T16:52:36.166Z,14.02
2022-12-17T16:55:03.805Z,13.38
2022-12-17T16:57:31.115Z,14.82
2022-12-17T16:59:58.592Z,15.18
2022-12-17T17:02:26.058Z,13.30
2022-12-17T17:04:56.213Z,13.57
2022-12-17T17:07:23.680Z,13.95
2022-12-17T17:09:52.942Z,13.95
2022-12-17T17:12:20.838Z,13.95
2022-12-17T17:14:48.237Z,13.95
2022-12-17T17:17:18.434Z,14.45
2022-12-17T17:19:45.783Z,13.93
2022-12-17T17:22:13.173Z,14.63
2022-12-17T17:24:40.477Z,13.77
2022-12-17T17:27:07.788Z,13.18
2022-12-17T17:29:35.097Z,14.23
2022-12-17T17:32:11.423Z,16.77
2022-12-17T17:34:40.950Z,25.95
2022-12-17T17:37:08.258Z,16.23
2022-12-17T17:39:36.111Z,20.40
2022-12-17T17:42:03.610Z,17.00
2022-12-17T17:44:31.003Z,16.90
2022-12-17T17:46:58.409Z,17.00
2022-12-17T17:49:28.952Z,15.82
2022-12-17T17:52:12.172Z,15.95
2022-12-17T17:54:40.211Z,16.08
2022-12-17T17:57:08.903Z,14.77
2022-12-17T17:59:39.280Z,15.15
2022-12-17T18:02:07.207Z,15.18
2022-12-17T18:04:34.760Z,17.02
2022-12-17T18:07:24.748Z,17.48
2022-12-17T18:09:50.665Z,16.98
2022-12-17T18:12:36.597Z,16.17
2022-12-17T18:15:19.593Z,15.65
2022-12-17T18:17:50.420Z,15.93
2022-12-17T18:20:18.425Z,18.27
2022-12-17T18:22:46.484Z,18.63
2022-12-17T18:25:16.696Z,18.70
2022-12-17T18:27:44.454Z,17.20
2022-12-17T18:30:12.502Z,18.83
2022-12-17T18:32:39.847Z,18.63
2022-12-17T18:35:07.818Z,17.40
2022-12-17T18:37:35.319Z,15.05
2022-12-17T18:40:02.824Z,17.75
2022-12-17T18:42:48.788Z,17.58
2022-12-17T18:45:16.390Z,16.58
2022-12-17T18:47:44.845Z,16.92
2022-12-17T18:50:13.122Z,16.70
2022-12-17T18:52:41.611Z,16.58
2022-12-17T18:55:11.066Z,15.50
2022-12-17T18:57:38.354Z,14.18
2022-12-17T19:00:06.527Z,12.73
2022-12-17T19:02:34.168Z,12.07
2022-12-17T19:05:02.071Z,12.55
2022-12-17T19:07:29.462Z,13.48
2022-12-17T19:09:56.793Z,13.95
2022-12-17T19:12:24.189Z,12.88
2022-12-17T19:14:51.654Z,13.65
2022-12-17T19:17:19.539Z,13.63
2022-12-17T19:19:47.557Z,13.30
2022-12-17T19:22:14.972Z,13.30
2022-12-17T19:24:42.510Z,13.90
2022-12-17T19:27:10.098Z,13.90
2022-12-17T19:29:37.514Z,17.02
2022-12-17T19:32:24.805Z,14.48
2022-12-17T19:34:52.116Z,15.80
2022-12-17T19:37:19.847Z,14.60
2022-12-17T19:39:47.479Z,13.48
2022-12-17T19:42:24.944Z,12.43
2022-12-17T19:44:56.612Z,13.40
2022-12-17T19:47:26.610Z,11.23
2022-12-17T19:49:53.968Z,10.55
2022-12-17T19:52:21.392Z,10.80
2022-12-17T19:54:48.977Z,11.07
2022-12-17T19:57:16.482Z,10.50
2022-12-17T19:59:44.057Z,11.85
2022-12-17T20:02:11.668Z,12.05
2022-12-17T20:04:39.247Z,12.25
2022-12-17T20:07:06.962Z,11.80
2022-12-17T20:09:34.334Z,13.13
2022-12-17T20:12:01.697Z,12.88
2022-12-17T20:14:29.276Z,13.27
2022-12-17T20:17:00.466Z,15.73
2022-12-17T20:19:33.411Z,15.63
2022-12-17T20:22:04.679Z,17.17
2022-12-17T20:24:32.576Z,18.73
2022-12-17T20:27:01.373Z,19.00
2022-12-17T20:29:29.187Z,18.77
2022-12-17T20:31:56.923Z,18.42
2022-12-17T20:34:27.278Z,17.35
2022-12-17T20:36:54.718Z,18.88
2022-12-17T20:39:27.241Z,18.95
2022-12-17T20:41:56.238Z,17.38
2022-12-17T20:44:23.798Z,18.67
2022-12-17T20:46:51.128Z,18.73
2022-12-17T20:49:18.447Z,17.95
2022-12-17T20:51:45.799Z,16.70
2022-12-17T20:54:13.105Z,17.75
2022-12-17T20:56:40.684Z,16.75
2022-12-17T20:59:13.315Z,16.58
2022-12-17T21:01:41.066Z,15.88
2022-12-17T21:04:08.546Z,15.02
2022-12-17T21:06:39.789Z,16.40
2022-12-17T21:09:07.937Z,16.23
2022-12-17T21:11:37.071Z,15.40
2022-12-17T21:14:07.535Z,16.55
2022-12-17T21:16:37.556Z,17.10
2022-12-17T21:19:06.708Z,17.90
2022-12-17T21:21:36.655Z,17.67
2022-12-17T21:24:04.584Z,17.30
2022-12-17T21:26:35.150Z,17.65
2022-12-17T21:29:04.558Z,18.10
2022-12-17T21:31:41.515Z,18.98
2022-12-17T21:34:14.201Z,18.00
2022-12-17T21:36:42.541Z,18.80
2022-12-17T21:39:14.612Z,17.42
2022-12-17T21:42:04.671Z,18.60
2022-12-17T21:44:32.182Z,16.48
2022-12-17T21:47:00.050Z,17.50
2022-12-17T21:49:27.445Z,16.98
2022-12-17T21:51:57.586Z,17.40
2022-12-17T21:54:25.266Z,17.95
2022-12-17T21:56:53.731Z,17.30
2022-12-17T21:59:21.123Z,17.33
2022-12-17T22:01:49.721Z,16.75
2022-12-17T22:04:17.407Z,16.67
2022-12-17T22:06:47.710Z,15.93
2022-12-17T22:09:32.306Z,15.70
2022-12-17T22:12:29.220Z,14.93
2022-12-17T22:14:56.534Z,15.48
2022-12-17T22:17:24.407Z,16.15
2022-12-17T22:19:51.680Z,15.35
2022-12-17T22:22:19.004Z,15.27
2022-12-17T22:24:46.324Z,17.80
2022-12-17T22:27:13.886Z,16.98
2022-12-17T22:29:59.886Z,17.50
2022-12-17T22:32:45.887Z,17.00
2022-12-17T22:36:47.919Z,16.25
2022-12-17T22:41:13.065Z,15.20
2022-12-17T22:44:35.376Z,15.35
2022-12-17T22:44:40.583Z,15.02
2022-12-17T22:46:24.624Z,15.73
2022-12-17T22:48:52.021Z,13.98
2022-12-17T22:51:32.078Z,13.52
2022-12-17T22:54:21.036Z,13.57
2022-12-17T22:57:34.526Z,13.98
2022-12-17T22:59:35.941Z,13.48
2022-12-17T23:02:03.328Z,12.15
2022-12-17T23:04:30.785Z,12.98
2022-12-17T23:06:58.097Z,12.38
2022-12-17T23:09:28.380Z,11.88
2022-12-17T23:11:55.784Z,11.43
2022-12-17T23:14:23.361Z,11.40
2022-12-17T23:16:50.888Z,9.75
2022-12-17T23:19:18.302Z,10.65
2022-12-17T23:21:45.693Z,10.35
2022-12-17T23:24:13.911Z,10.18
2022-12-17T23:26:41.266Z,11.02
2022-12-17T23:29:19.140Z,9.80
2022-12-17T23:31:47.495Z,9.20
2022-12-17T23:34:15.113Z,8.93
2022-12-17T23:36:42.722Z,8.57
2022-12-17T23:39:10.107Z,8.32
2022-12-17T23:41:40.185Z,8.43
2022-12-17T23:44:07.548Z,7.85
2022-12-17T23:46:34.926Z,7.90
2022-12-17T23:49:05.223Z,9.55
2022-12-17T23:51:33.069Z,10.70
2022-12-17T23:54:00.406Z,10.93
2022-12-17T23:56:29.065Z,11.25
2022-12-17T23:58:59.705Z,13.30
